createdAt,value
2018-09-15T00:01:02.310Z,1.70
2018-09-15T00:03:29.776Z,1.90
2018-09-15T00:05:57.278Z,1.77
2018-09-15T00:08:24.923Z,1.60
2018-09-15T00:10:52.311Z,1.70
2018-09-15T00:13:21.187Z,1.50
2018-09-15T00:15:49.855Z,1.73
2018-09-15T00:18:18.293Z,1.67
2018-09-15T00:20:45.784Z,1.60
2018-09-15T00:23:13.397Z,1.90
2018-09-15T00:25:41.413Z,1.53
2018-09-15T00:28:09.728Z,1.60
2018-09-15T00:30:37.324Z,1.37
2018-09-15T00:33:04.688Z,1.43
2018-09-15T00:35:32.204Z,1.60
2018-09-15T00:37:59.784Z,1.70
2018-09-15T00:40:27.196Z,1.80
2018-09-15T00:42:55.441Z,1.97
2018-09-15T00:45:22.831Z,1.70
2018-09-15T00:47:50.203Z,1.83
2018-09-15T00:50:17.604Z,1.50
2018-09-15T00:52:45.096Z,1.50
2018-09-15T00:55:12.476Z,1.70
2018-09-15T00:57:39.924Z,1.67
2018-09-15T01:00:08.343Z,1.60
2018-09-15T01:02:36.223Z,1.60
2018-09-15T01:05:04.215Z,1.43
2018-09-15T01:07:31.711Z,1.47
2018-09-15T01:09:59.102Z,1.50
2018-09-15T01:12:26.640Z,1.40
2018-09-15T01:14:54.146Z,1.60
2018-09-15T01:17:21.670Z,1.90
2018-09-15T01:19:49.200Z,1.60
2018-09-15T01:22:16.923Z,1.63
2018-09-15T01:24:44.506Z,1.60
2018-09-15T01:27:12.039Z,1.40
2018-09-15T01:29:39.426Z,1.50
2018-09-15T01:32:07.710Z,1.53
2018-09-15T01:34:35.226Z,1.60
2018-09-15T01:37:03.711Z,1.50
2018-09-15T01:39:31.729Z,1.70
2018-09-15T01:41:59.419Z,1.37
2018-09-15T01:44:26.875Z,1.83
2018-09-15T01:46:54.263Z,1.60
2018-09-15T01:49:21.777Z,1.83
2018-09-15T01:51:49.423Z,1.80
2018-09-15T01:54:16.823Z,1.73
2018-09-15T01:56:44.194Z,1.70
2018-09-15T01:59:11.929Z,1.90
2018-09-15T02:01:39.468Z,1.90
2018-09-15T02:04:07.543Z,1.60
2018-09-15T02:06:35.336Z,1.70
2018-09-15T02:09:02.803Z,1.80
2018-09-15T02:11:30.359Z,1.40
2018-09-15T02:13:58.019Z,1.80
2018-09-15T02:16:25.411Z,1.57
2018-09-15T02:18:52.795Z,1.60
2018-09-15T02:21:20.386Z,1.70
2018-09-15T02:23:47.772Z,1.50
2018-09-15T02:26:15.271Z,1.47
2018-09-15T02:28:42.794Z,1.87
2018-09-15T02:31:10.831Z,1.70
2018-09-15T02:33:38.251Z,1.77
2018-09-15T02:36:05.761Z,1.53
2018-09-15T02:38:33.147Z,1.53
2018-09-15T02:41:00.555Z,1.47
2018-09-15T02:43:28.084Z,1.90
2018-09-15T02:45:55.531Z,1.60
2018-09-15T02:48:22.924Z,1.73
2018-09-15T02:50:50.424Z,1.60
2018-09-15T02:53:17.928Z,1.70
2018-09-15T02:55:45.604Z,1.60
2018-09-15T02:58:13.101Z,1.43
2018-09-15T03:00:40.600Z,1.47
2018-09-15T03:03:08.011Z,1.50
2018-09-15T03:05:35.646Z,1.77
2018-09-15T03:08:03.350Z,1.40
2018-09-15T03:10:31.359Z,1.83
2018-09-15T03:12:58.735Z,1.57
2018-09-15T03:15:26.232Z,1.70
2018-09-15T03:17:53.619Z,1.63
2018-09-15T03:20:21.247Z,1.40
2018-09-15T03:22:48.997Z,1.57
2018-09-15T03:25:16.400Z,1.97
2018-09-15T03:27:43.794Z,1.50
2018-09-15T03:30:11.206Z,1.60
2018-09-15T03:32:38.575Z,1.60
2018-09-15T03:35:06.003Z,1.50
2018-09-15T03:37:33.549Z,1.80
2018-09-15T03:40:00.920Z,1.77
2018-09-15T03:42:28.583Z,1.70
2018-09-15T03:44:55.992Z,1.57
2018-09-15T03:47:23.539Z,1.80
2018-09-15T03:49:51.347Z,1.70
2018-09-15T03:52:18.778Z,1.60
2018-09-15T03:54:46.175Z,1.70
2018-09-15T03:57:13.794Z,2.13
2018-09-15T03:59:41.223Z,1.60
2018-09-15T04:02:08.719Z,1.90
2018-09-15T04:04:36.311Z,1.40
2018-09-15T04:07:04.937Z,1.93
2018-09-15T04:09:32.424Z,1.50
2018-09-15T04:12:00.111Z,1.83
2018-09-15T04:14:27.603Z,1.50
2018-09-15T04:16:55.339Z,1.70
2018-09-15T04:19:22.859Z,1.70
2018-09-15T04:21:50.302Z,1.80
2018-09-15T04:24:17.707Z,1.70
2018-09-15T04:26:45.242Z,1.90
2018-09-15T04:29:13.227Z,1.50
2018-09-15T04:31:40.731Z,1.70
2018-09-15T04:34:08.475Z,1.90
2018-09-15T04:36:36.217Z,2.00
2018-09-15T04:39:04.624Z,1.60
2018-09-15T04:41:32.419Z,1.60
2018-09-15T04:43:59.783Z,1.73
2018-09-15T04:46:27.283Z,1.70
2018-09-15T04:48:54.730Z,1.63
2018-09-15T04:51:22.113Z,1.60
2018-09-15T04:53:49.612Z,1.60
2018-09-15T04:56:17.107Z,1.90
2018-09-15T04:58:44.491Z,1.87
2018-09-15T05:01:11.985Z,1.63
2018-09-15T05:03:39.531Z,2.00
2018-09-15T05:06:06.915Z,2.30
2018-09-15T05:08:34.566Z,1.70
2018-09-15T05:11:01.966Z,2.00
2018-09-15T05:13:29.434Z,1.80
2018-09-15T05:15:56.943Z,2.07
2018-09-15T05:18:24.495Z,2.03
2018-09-15T05:20:51.876Z,1.83
2018-09-15T05:23:19.327Z,2.10
2018-09-15T05:25:46.729Z,1.90
2018-09-15T05:28:14.114Z,1.90
2018-09-15T05:30:41.492Z,2.00
2018-09-15T05:33:08.995Z,2.27
2018-09-15T05:35:36.446Z,1.97
2018-09-15T05:38:03.887Z,2.40
2018-09-15T05:40:31.615Z,2.20
2018-09-15T05:42:58.983Z,2.10
2018-09-15T05:45:26.512Z,2.10
2018-09-15T05:47:53.887Z,2.47
2018-09-15T05:50:21.339Z,2.10
2018-09-15T05:52:48.946Z,2.17
2018-09-15T05:55:16.453Z,2.10
2018-09-15T05:57:43.823Z,2.40
2018-09-15T06:00:11.278Z,2.40
2018-09-15T06:02:38.737Z,2.07
2018-09-15T06:05:06.546Z,2.23
2018-09-15T06:07:34.120Z,1.87
2018-09-15T06:10:01.450Z,2.40
2018-09-15T06:12:29.014Z,2.20
2018-09-15T06:14:56.394Z,2.17
2018-09-15T06:17:23.787Z,2.47
2018-09-15T06:19:51.917Z,1.97
2018-09-15T06:22:19.287Z,2.20
2018-09-15T06:24:46.971Z,2.20
2018-09-15T06:27:14.617Z,2.17
2018-09-15T06:29:42.187Z,2.17
2018-09-15T06:32:09.615Z,2.13
2018-09-15T06:34:37.092Z,2.30
2018-09-15T06:37:04.495Z,2.07
2018-09-15T06:39:31.984Z,2.13
2018-09-15T06:41:59.382Z,2.30
2018-09-15T06:44:26.875Z,2.23
2018-09-15T06:46:54.576Z,2.70
2018-09-15T06:49:22.155Z,2.50
2018-09-15T06:51:49.663Z,2.20
2018-09-15T06:54:17.201Z,2.40
2018-09-15T06:56:44.566Z,2.20
2018-09-15T06:59:11.950Z,2.30
2018-09-15T07:01:41.342Z,1.97
2018-09-15T07:04:10.517Z,2.50
2018-09-15T07:06:38.748Z,1.90
2018-09-15T07:09:07.159Z,2.07
2018-09-15T07:11:34.523Z,2.00
2018-09-15T07:14:02.078Z,1.80
2018-09-15T07:16:29.649Z,1.73
2018-09-15T07:18:58.043Z,1.90
2018-09-15T07:21:25.455Z,1.90
2018-09-15T07:23:53.101Z,1.73
2018-09-15T07:26:20.560Z,2.00
2018-09-15T07:28:48.621Z,1.90
2018-09-15T07:31:16.151Z,1.77
2018-09-15T07:33:43.682Z,1.80
2018-09-15T07:36:11.280Z,1.50
2018-09-15T07:38:38.659Z,1.93
2018-09-15T07:41:06.151Z,1.80
2018-09-15T07:43:33.575Z,1.53
2018-09-15T07:46:00.959Z,1.50
2018-09-15T07:48:28.319Z,1.80
2018-09-15T07:50:55.915Z,1.60
2018-09-15T07:53:23.300Z,1.50
2018-09-15T07:55:50.960Z,1.83
2018-09-15T07:58:18.374Z,1.77
2018-09-15T08:00:45.906Z,1.70
2018-09-15T08:03:13.333Z,1.47
2018-09-15T08:05:40.747Z,1.87
2018-09-15T08:08:08.247Z,1.57
2018-09-15T08:10:35.891Z,1.50
2018-09-15T08:13:03.407Z,1.63
2018-09-15T08:15:31.110Z,1.83
2018-09-15T08:17:58.482Z,1.97
2018-09-15T08:20:26.029Z,1.60
2018-09-15T08:22:53.420Z,1.50
2018-09-15T08:25:20.820Z,1.73
2018-09-15T08:27:48.372Z,1.67
2018-09-15T08:30:15.867Z,1.70
2018-09-15T08:32:43.242Z,1.53
2018-09-15T08:35:11.011Z,1.50
2018-09-15T08:37:38.529Z,1.43
2018-09-15T08:40:06.361Z,1.50
2018-09-15T08:42:33.756Z,1.50
2018-09-15T08:45:01.331Z,1.73
2018-09-15T08:47:28.970Z,1.60
2018-09-15T08:49:56.491Z,1.50
2018-09-15T08:52:24.101Z,1.40
2018-09-15T08:54:51.631Z,1.50
2018-09-15T08:57:19.031Z,1.77
2018-09-15T08:59:46.776Z,1.67
2018-09-15T09:02:14.907Z,1.80
2018-09-15T09:04:43.606Z,1.50
2018-09-15T09:07:11.234Z,1.70
2018-09-15T09:09:39.372Z,1.77
2018-09-15T09:12:07.517Z,1.73
2018-09-15T09:14:34.995Z,1.80
2018-09-15T09:17:02.717Z,1.43
2018-09-15T09:19:32.655Z,1.87
2018-09-15T09:22:00.173Z,1.60
2018-09-15T09:24:27.659Z,1.33
2018-09-15T09:26:55.345Z,1.30
2018-09-15T09:29:23.175Z,1.30
2018-09-15T09:31:51.092Z,1.47
2018-09-15T09:34:18.491Z,1.70
2018-09-15T09:36:45.990Z,1.50
2018-09-15T09:39:13.998Z,1.37
2018-09-15T09:41:42.115Z,1.37
2018-09-15T09:44:09.697Z,1.40
2018-09-15T09:46:37.526Z,1.50
2018-09-15T09:49:05.785Z,1.40
2018-09-15T09:51:33.602Z,1.50
2018-09-15T09:54:01.275Z,1.50
2018-09-15T09:56:28.751Z,1.20
2018-09-15T09:58:56.139Z,1.70
2018-09-15T10:01:28.357Z,1.37
2018-09-15T10:03:56.408Z,1.50
2018-09-15T10:06:24.815Z,1.30
2018-09-15T10:08:52.771Z,1.30
2018-09-15T10:11:20.890Z,1.23
2018-09-15T10:13:48.621Z,1.57
2018-09-15T10:16:16.157Z,1.40
2018-09-15T10:18:43.715Z,1.30
2018-09-15T10:21:11.348Z,1.30
2018-09-15T10:23:38.779Z,1.53
2018-09-15T10:26:06.594Z,1.40
2018-09-15T10:28:34.358Z,1.30
2018-09-15T10:31:01.791Z,1.60
2018-09-15T10:33:29.187Z,1.50
2018-09-15T10:35:56.691Z,1.53
2018-09-15T10:38:24.309Z,1.63
2018-09-15T10:40:51.811Z,1.40
2018-09-15T10:43:19.323Z,1.40
2018-09-15T10:45:46.899Z,1.53
2018-09-15T10:48:14.571Z,1.40
2018-09-15T10:50:42.056Z,1.47
2018-09-15T10:53:09.799Z,1.77
2018-09-15T10:55:37.519Z,1.70
2018-09-15T10:58:05.286Z,1.60
2018-09-15T11:00:32.861Z,1.40
2018-09-15T11:03:00.503Z,1.57
2018-09-15T11:05:28.006Z,1.40
2018-09-15T11:07:55.571Z,1.60
2018-09-15T11:10:23.072Z,1.50
2018-09-15T11:12:50.551Z,1.80
2018-09-15T11:15:17.986Z,1.40
2018-09-15T11:17:45.486Z,1.27
2018-09-15T11:20:13.035Z,1.47
2018-09-15T11:22:41.473Z,1.20
2018-09-15T11:25:08.876Z,1.60
2018-09-15T11:27:36.397Z,1.20
2018-09-15T11:30:04.161Z,1.17
2018-09-15T11:32:31.836Z,1.07
2018-09-15T11:34:59.387Z,1.23
2018-09-15T11:37:26.890Z,1.20
2018-09-15T11:39:54.488Z,1.37
2018-09-15T11:42:22.035Z,1.10
2018-09-15T11:44:49.528Z,1.00
2018-09-15T11:47:17.186Z,1.30
2018-09-15T11:49:44.584Z,1.33
2018-09-15T11:52:11.959Z,1.30
2018-09-15T11:54:39.779Z,1.07
2018-09-15T11:57:07.579Z,1.17
2018-09-15T11:59:35.018Z,1.30
2018-09-15T12:02:02.579Z,1.37
2018-09-15T12:04:30.701Z,1.30
2018-09-15T12:06:58.227Z,1.23
2018-09-15T12:09:25.595Z,1.00
2018-09-15T12:11:53.183Z,1.10
2018-09-15T12:14:21.040Z,1.20
2018-09-15T12:16:48.363Z,1.37
2018-09-15T12:19:15.867Z,1.10
2018-09-15T12:21:43.438Z,1.20
2018-09-15T12:24:10.935Z,1.20
2018-09-15T12:26:38.567Z,1.17
2018-09-15T12:29:06.321Z,1.00
2018-09-15T12:31:33.703Z,1.10
2018-09-15T12:34:01.236Z,1.00
2018-09-15T12:36:28.748Z,1.00
2018-09-15T12:38:56.147Z,1.40
2018-09-15T12:41:23.547Z,1.13
2018-09-15T12:43:50.946Z,1.00
2018-09-15T12:46:18.833Z,1.03
2018-09-15T12:48:46.649Z,1.47
2018-09-15T12:51:14.119Z,1.20
2018-09-15T12:53:41.625Z,1.10
2018-09-15T12:56:09.119Z,1.23
2018-09-15T12:58:36.647Z,1.30
2018-09-15T13:01:04.118Z,1.10
2018-09-15T13:03:31.623Z,1.37
2018-09-15T13:05:59.078Z,1.10
2018-09-15T13:08:26.635Z,1.10
2018-09-15T13:10:54.079Z,1.20
2018-09-15T13:13:21.455Z,1.20
2018-09-15T13:15:49.056Z,1.10
2018-09-15T13:18:16.450Z,1.10
2018-09-15T13:20:43.996Z,1.10
2018-09-15T13:23:11.429Z,1.00
2018-09-15T13:25:38.819Z,1.00
2018-09-15T13:28:06.585Z,1.10
2018-09-15T13:30:34.296Z,1.27
2018-09-15T13:33:01.672Z,0.97
2018-09-15T13:35:29.262Z,0.97
2018-09-15T13:37:56.835Z,1.53
2018-09-15T13:40:24.412Z,1.10
2018-09-15T13:42:52.156Z,1.10
2018-09-15T13:45:19.688Z,1.00
2018-09-15T13:47:47.379Z,0.93
2018-09-15T13:50:15.184Z,1.07
2018-09-15T13:52:42.610Z,0.97
2018-09-15T13:55:10.117Z,1.20
2018-09-15T13:57:37.549Z,1.20
2018-09-15T14:00:05.344Z,0.87
2018-09-15T14:02:36.202Z,1.20
2018-09-15T14:05:03.975Z,0.90
2018-09-15T14:07:31.479Z,0.90
2018-09-15T14:09:59.099Z,1.10
2018-09-15T14:12:26.948Z,1.10
2018-09-15T14:14:54.444Z,1.10
2018-09-15T14:17:21.899Z,1.10
2018-09-15T14:19:49.331Z,1.00
2018-09-15T14:22:16.835Z,1.00
2018-09-15T14:24:45.322Z,0.83
2018-09-15T14:27:12.845Z,1.00
2018-09-15T14:29:40.365Z,0.80
2018-09-15T14:32:07.952Z,0.67
2018-09-15T14:34:35.498Z,0.77
2018-09-15T14:37:03.122Z,0.80
2018-09-15T14:39:30.841Z,1.00
2018-09-15T14:41:58.271Z,0.80
2018-09-15T14:44:25.936Z,0.90
2018-09-15T14:46:53.319Z,0.80
2018-09-15T14:49:20.795Z,0.67
2018-09-15T14:51:48.611Z,0.80
2018-09-15T14:54:15.998Z,1.07
2018-09-15T14:56:43.427Z,0.73
2018-09-15T14:59:10.971Z,0.80
2018-09-15T15:03:09.098Z,0.70
2018-09-15T15:05:36.739Z,1.00
2018-09-15T15:08:04.592Z,0.77
2018-09-15T15:10:32.324Z,0.70
2018-09-15T15:12:59.824Z,0.90
2018-09-15T15:15:27.381Z,0.70
2018-09-15T15:17:54.986Z,0.70
2018-09-15T15:20:22.481Z,0.70
2018-09-15T15:22:50.068Z,0.57
2018-09-15T15:25:17.475Z,0.80
2018-09-15T15:27:45.115Z,0.80
2018-09-15T15:30:12.559Z,0.80
2018-09-15T15:32:40.091Z,0.90
2018-09-15T15:35:08.056Z,0.77
2018-09-15T15:37:35.507Z,0.80
2018-09-15T15:40:02.893Z,0.97
2018-09-15T15:42:30.750Z,0.80
2018-09-15T15:44:58.211Z,0.77
2018-09-15T15:47:25.754Z,0.70
2018-09-15T15:49:53.304Z,0.73
2018-09-15T15:52:21.477Z,0.57
2018-09-15T15:54:49.329Z,0.80
2018-09-15T15:57:17.955Z,0.63
2018-09-15T15:59:46.083Z,0.70
2018-09-15T16:02:13.615Z,0.80
2018-09-15T16:04:41.015Z,0.80
2018-09-15T16:07:08.571Z,0.97
2018-09-15T16:09:36.160Z,0.70
2018-09-15T16:12:03.665Z,0.80
2018-09-15T16:14:31.099Z,0.90
2018-09-15T16:16:58.646Z,0.93
2018-09-15T16:19:26.172Z,0.70
2018-09-15T16:21:54.379Z,0.90
2018-09-15T16:24:21.900Z,0.80
2018-09-15T16:26:49.287Z,1.20
2018-09-15T16:29:17.268Z,0.80
2018-09-15T16:31:44.828Z,0.70
2018-09-15T16:34:12.243Z,0.83
2018-09-15T16:36:39.726Z,0.90
2018-09-15T16:39:08.775Z,0.70
2018-09-15T16:41:36.551Z,0.80
2018-09-15T16:44:04.063Z,0.90
2018-09-15T16:46:31.438Z,0.80
2018-09-15T16:48:59.108Z,0.80
2018-09-15T16:51:26.611Z,0.80
2018-09-15T16:53:54.162Z,0.87
2018-09-15T16:56:22.080Z,0.90
2018-09-15T16:58:49.773Z,0.77
2018-09-15T17:01:17.465Z,0.80
2018-09-15T17:03:44.923Z,0.80
2018-09-15T17:06:12.348Z,0.90
2018-09-15T17:08:39.908Z,0.70
2018-09-15T17:11:07.911Z,1.00
2018-09-15T17:13:35.437Z,1.10
2018-09-15T17:16:03.130Z,0.70
2018-09-15T17:18:30.572Z,0.90
2018-09-15T17:20:58.085Z,0.80
2018-09-15T17:23:25.707Z,0.90
2018-09-15T17:25:53.119Z,0.90
2018-09-15T17:28:20.520Z,0.80
2018-09-15T17:30:48.520Z,0.80
2018-09-15T17:33:15.915Z,0.80
2018-09-15T17:35:43.503Z,0.60
2018-09-15T17:38:10.904Z,0.90
2018-09-15T17:40:38.385Z,0.90
2018-09-15T17:43:05.950Z,1.00
2018-09-15T17:45:33.457Z,0.70
2018-09-15T17:48:00.819Z,1.00
2018-09-15T17:50:28.215Z,0.80
2018-09-15T17:52:55.642Z,0.93
2018-09-15T17:55:23.133Z,1.03
2018-09-15T17:57:51.518Z,0.90
2018-09-15T18:00:19.054Z,1.00
2018-09-15T18:02:46.483Z,0.97
2018-09-15T18:05:14.027Z,0.90
2018-09-15T18:07:41.972Z,0.90
2018-09-15T18:10:09.478Z,0.80
2018-09-15T18:12:36.904Z,0.90
2018-09-15T18:15:04.484Z,0.90
2018-09-15T18:17:31.991Z,1.17
2018-09-15T18:19:59.440Z,1.00
2018-09-15T18:22:26.859Z,0.90
2018-09-15T18:24:54.464Z,1.10
2018-09-15T18:27:21.883Z,1.00
2018-09-15T18:29:49.308Z,0.90
2018-09-15T18:32:16.818Z,0.80
2018-09-15T18:34:45.120Z,0.80
2018-09-15T18:37:12.591Z,0.90
2018-09-15T18:39:40.115Z,0.90
2018-09-15T18:42:07.511Z,0.80
2018-09-15T18:44:35.082Z,0.80
2018-09-15T18:47:02.616Z,0.90
2018-09-15T18:49:30.295Z,0.87
2018-09-15T18:51:57.691Z,0.90
2018-09-15T18:54:25.362Z,0.83
2018-09-15T18:56:52.973Z,0.90
2018-09-15T18:59:20.503Z,0.90
2018-09-15T19:01:47.892Z,0.90
2018-09-15T19:04:15.290Z,1.00
2018-09-15T19:06:42.806Z,0.80
2018-09-15T19:09:11.539Z,0.70
2018-09-15T19:11:39.215Z,0.80
2018-09-15T19:14:07.295Z,0.80
2018-09-15T19:16:34.829Z,0.70
2018-09-15T19:19:02.239Z,0.90
2018-09-15T19:21:29.971Z,0.80
2018-09-15T19:23:57.506Z,0.70
2018-09-15T19:26:25.399Z,0.70
2018-09-15T19:28:52.999Z,0.77
2018-09-15T19:31:20.723Z,0.87
2018-09-15T19:33:48.364Z,0.70
2018-09-15T19:36:15.909Z,0.80
2018-09-15T19:38:43.535Z,1.00
2018-09-15T19:41:10.956Z,0.70
2018-09-15T19:43:38.443Z,0.70
2018-09-15T19:46:06.454Z,0.70
2018-09-15T19:48:33.948Z,0.80
2018-09-15T19:51:01.452Z,0.90
2018-09-15T19:53:28.883Z,0.70
2018-09-15T19:55:56.390Z,0.80
2018-09-15T19:58:23.952Z,0.90
2018-09-15T20:00:51.379Z,0.97
2018-09-15T20:03:18.766Z,1.00
2018-09-15T20:05:46.151Z,1.10
2018-09-15T20:08:13.580Z,0.80
2018-09-15T20:10:41.179Z,0.70
2018-09-15T20:13:08.638Z,0.90
2018-09-15T20:15:35.436Z,1.30
2018-09-15T20:18:02.233Z,1.30
2018-09-15T20:20:29.039Z,1.40
2018-09-15T20:22:56.592Z,1.20
2018-09-15T20:25:24.089Z,1.30
2018-09-15T20:27:51.515Z,1.63
2018-09-15T20:30:19.181Z,1.13
2018-09-15T20:32:46.870Z,1.50
2018-09-15T20:35:14.379Z,1.10
2018-09-15T20:37:41.899Z,0.83
2018-09-15T20:40:10.199Z,0.80
2018-09-15T20:42:38.318Z,0.80
2018-09-15T20:45:06.371Z,1.30
2018-09-15T20:47:33.791Z,1.00
2018-09-15T20:50:01.183Z,1.00
2018-09-15T20:52:29.126Z,1.00
2018-09-15T20:54:56.539Z,0.90
2018-09-15T20:57:24.309Z,0.80
2018-09-15T20:59:51.696Z,0.93
2018-09-15T21:02:19.162Z,0.90
2018-09-15T21:04:46.552Z,0.90
2018-09-15T21:07:13.924Z,1.07
2018-09-15T21:09:41.563Z,1.20
2018-09-15T21:12:09.083Z,0.90
2018-09-15T21:14:36.604Z,1.00
2018-09-15T21:17:04.307Z,1.17
2018-09-15T21:19:32.287Z,0.90
2018-09-15T21:21:59.787Z,1.00
2018-09-15T21:24:27.275Z,1.10
2018-09-15T21:26:54.659Z,1.00
2018-09-15T21:29:22.094Z,1.10
2018-09-15T21:31:49.628Z,1.00
2018-09-15T21:34:17.136Z,1.07
2018-09-15T21:36:45.295Z,1.10
2018-09-15T21:39:13.615Z,0.97
2018-09-15T21:41:41.371Z,1.10
2018-09-15T21:44:08.975Z,0.70
2018-09-15T21:46:36.359Z,0.90
2018-09-15T21:49:04.016Z,0.83
2018-09-15T21:51:32.783Z,0.80
2018-09-15T21:54:00.562Z,1.00
2018-09-15T21:56:27.954Z,0.80
2018-09-15T21:58:55.396Z,1.00
2018-09-15T22:01:23.392Z,0.90
2018-09-15T22:03:56.258Z,0.80
2018-09-15T22:06:23.699Z,0.80
2018-09-15T22:08:51.186Z,0.70
2018-09-15T22:11:18.767Z,0.83
2018-09-15T22:13:46.275Z,0.90
2018-09-15T22:16:13.654Z,0.80
2018-09-15T22:18:41.060Z,0.73
2018-09-15T22:21:08.471Z,0.90
2018-09-15T22:23:36.096Z,0.73
2018-09-15T22:26:03.516Z,0.80
2018-09-15T22:28:30.907Z,0.77
2018-09-15T22:30:58.554Z,0.90
2018-09-15T22:33:26.322Z,0.70
2018-09-15T22:35:53.700Z,0.53
2018-09-15T22:38:21.177Z,0.50
2018-09-15T22:40:48.628Z,0.80
2018-09-15T22:43:16.129Z,0.63
2018-09-15T22:45:43.665Z,0.80
2018-09-15T22:48:11.273Z,0.77
2018-09-15T22:50:38.682Z,0.80
2018-09-15T22:53:06.295Z,0.87
2018-09-15T22:55:33.770Z,0.80
2018-09-15T22:58:01.179Z,0.80
2018-09-15T23:00:28.668Z,0.50
2018-09-15T23:02:56.121Z,0.67
2018-09-15T23:05:23.743Z,0.67
2018-09-15T23:07:51.180Z,0.80
2018-09-15T23:10:19.616Z,0.70
2018-09-15T23:12:47.106Z,0.70
2018-09-15T23:15:14.925Z,0.80
2018-09-15T23:17:42.545Z,0.80
2018-09-15T23:20:10.122Z,0.90
2018-09-15T23:22:38.125Z,0.60
2018-09-15T23:25:05.659Z,0.90
2018-09-15T23:27:33.059Z,0.80
2018-09-15T23:30:00.441Z,1.00
2018-09-15T23:32:27.890Z,0.90
2018-09-15T23:34:55.501Z,1.00
2018-09-15T23:37:22.876Z,0.80
2018-09-15T23:39:50.591Z,0.60
2018-09-15T23:42:17.954Z,0.80
2018-09-15T23:44:45.411Z,0.70
2018-09-15T23:47:13.356Z,0.80
2018-09-15T23:49:40.909Z,0.70
2018-09-15T23:52:08.339Z,0.83
2018-09-15T23:54:36.514Z,0.87
2018-09-15T23:57:04.020Z,0.60
2018-09-15T23:59:31.541Z,0.80
